createdAt,value
2018-12-27T00:25:33.939Z,13.70
2018-12-27T00:55:40.662Z,9.20
2018-12-27T01:25:47.091Z,9.77
2018-12-27T01:55:53.585Z,9.40
2018-12-27T02:25:59.969Z,8.90
2018-12-27T02:56:07.977Z,8.10
2018-12-27T03:26:14.210Z,9.83
2018-12-27T03:56:20.707Z,10.00
2018-12-27T04:26:26.793Z,13.63
2018-12-27T04:56:33.125Z,12.10
2018-12-27T05:26:39.487Z,11.53
2018-12-27T05:56:45.970Z,17.37
2018-12-27T06:26:52.098Z,24.07
2018-12-27T06:56:58.436Z,34.30
2018-12-27T07:27:05.169Z,31.60
2018-12-27T07:57:11.619Z,30.47
2018-12-27T08:27:18.124Z,30.83
2018-12-27T08:57:24.232Z,25.80
2018-12-27T09:27:30.839Z,24.10
2018-12-27T09:57:37.040Z,28.57
2018-12-27T10:27:43.132Z,26.40
2018-12-27T10:57:49.398Z,28.23
2018-12-27T11:27:55.668Z,25.00
2018-12-27T11:58:02.078Z,32.13
2018-12-27T12:28:10.542Z,20.93
2018-12-27T12:58:16.779Z,29.47
2018-12-27T13:28:22.990Z,25.47
2018-12-27T13:58:29.111Z,27.30
2018-12-27T14:28:35.334Z,27.10
2018-12-27T14:58:41.466Z,25.40
2018-12-27T15:28:47.715Z,47.40
2018-12-27T15:58:53.928Z,31.47
2018-12-27T16:29:00.018Z,31.00
2018-12-27T16:59:06.182Z,25.93
2018-12-27T17:29:12.476Z,25.20
2018-12-27T17:59:19.111Z,28.00
2018-12-27T18:29:25.652Z,26.00
2018-12-27T18:59:31.986Z,27.20
2018-12-27T19:29:38.224Z,36.07
2018-12-27T19:59:44.815Z,18.10
2018-12-27T20:29:51.154Z,15.90
2018-12-27T20:59:57.277Z,18.27
2018-12-27T21:30:04.287Z,17.80
2018-12-27T22:00:11.367Z,21.48
2018-12-27T22:30:19.743Z,25.23
2018-12-27T23:00:34.656Z,36.37
2018-12-27T23:30:40.995Z,20.30
